Time;durP1;ratioP1;P1;durP2;ratioP2;P2;SDS_P1;SDS_P2;PMS_P1;PMS_P2;Temp;Humidity;BMP_temperature;BMP_pressure;BME280_temperature;BME280_humidity;BME280_pressure;Samples;Min_cycle;Max_cycle;Signal;HPM_P1;HPM_P2
2023/04/03 00:00:40;;;;;;;;;35.00;29.50;;;;;8.30;63.94;101982.25;5032110;28;45501;-55
2023/04/03 00:03:05;;;;;;;;;31.25;27.75;;;;;8.52;63.52;102022.72;5032855;28;46379;-55
2023/04/03 00:05:31;;;;;;;;;27.50;25.00;;;;;8.48;63.65;102015.00;5032780;28;45457;-55
2023/04/03 00:07:56;;;;;;;;;27.00;25.00;;;;;8.37;64.05;101994.25;5033081;28;45336;-56
2023/04/03 00:10:22;;;;;;;;;27.75;22.25;;;;;8.52;62.96;102013.66;5015366;28;45361;-55
2023/04/03 00:12:47;;;;;;;;;29.75;26.50;;;;;8.36;63.68;102009.81;5033052;28;45897;-55
2023/04/03 00:15:13;;;;;;;;;27.50;25.25;;;;;8.32;64.57;102018.53;5032688;28;45351;-55
2023/04/03 00:17:38;;;;;;;;;27.50;27.25;;;;;8.21;64.27;101997.81;5033078;28;45346;-56
2023/04/03 00:20:04;;;;;;;;;28.25;26.00;;;;;8.42;63.81;102021.97;5032732;28;45780;-57
2023/04/03 00:22:30;;;;;;;;;24.60;23.20;;;;;8.32;64.61;102015.81;5026253;28;46356;-55
2023/04/03 00:24:55;;;;;;;;;38.50;29.25;;;;;8.22;63.81;102018.69;5048063;28;45372;-57
2023/04/03 00:27:21;;;;;;;;;27.50;24.75;;;;;8.25;63.74;102023.81;5033320;28;45409;-56
2023/04/03 00:29:46;;;;;;;;;27.75;23.25;;;;;8.01;63.67;101981.69;5038192;28;45433;-58
2023/04/03 00:32:12;;;;;;;;;26.50;25.00;;;;;8.26;63.45;102012.69;5056289;28;46256;-56
2023/04/03 00:34:38;;;;;;;;;29.00;26.00;;;;;8.38;63.30;102024.19;5055953;28;45447;-56
2023/04/03 00:37:03;;;;;;;;;29.00;27.25;;;;;8.40;62.99;102021.28;5038003;28;45408;-55
2023/04/03 00:39:29;;;;;;;;;22.75;21.75;;;;;8.44;63.27;102024.56;5038144;28;45493;-56
2023/04/03 00:41:54;;;;;;;;;27.50;25.00;;;;;8.45;63.38;102018.06;5037522;28;46901;-56
2023/04/03 00:44:23;;;;;;;;;32.00;29.00;;;;;8.38;62.55;102012.41;5056099;28;45419;-57
2023/04/03 00:46:49;;;;;;;;;19.80;17.00;;;;;8.37;62.95;102008.81;5040514;28;45636;-54
2023/04/03 00:49:15;;;;;;;;;25.50;24.00;;;;;8.39;62.89;102008.66;5036454;28;45639;-55
2023/04/03 00:51:40;;;;;;;;;32.40;27.40;;;;;8.19;63.26;101984.31;5035648;28;45511;-57
2023/04/03 00:54:06;;;;;;;;;28.00;26.50;;;;;8.38;63.37;102026.94;5035642;28;45327;-55
2023/04/03 00:56:31;;;;;;;;;30.75;25.50;;;;;8.33;63.51;102007.41;5033786;28;45324;-55
2023/04/03 00:58:58;;;;;;;;;21.50;18.50;;;;;8.19;63.48;101987.03;5018151;28;45415;-55
2023/04/03 01:01:25;;;;;;;;;33.80;27.60;;;;;8.36;63.04;102007.09;5035572;28;45868;-57
2023/04/03 01:03:51;;;;;;;;;26.80;25.80;;;;;8.45;62.57;102012.59;5050775;28;45524;-53
2023/04/03 01:06:17;;;;;;;;;30.50;28.25;;;;;8.46;62.99;102006.94;5035831;28;45462;-56
2023/04/03 01:08:43;;;;;;;;;29.80;24.80;;;;;8.46;62.42;102006.94;5017885;28;45419;-57
2023/04/03 01:11:08;;;;;;;;;23.50;21.75;;;;;8.51;62.73;102006.44;5034260;28;45501;-56
2023/04/03 01:13:34;;;;;;;;;32.00;26.00;;;;;8.45;62.76;101983.34;5017854;28;45330;-57
2023/04/03 01:16:03;;;;;;;;;24.25;23.50;;;;;8.38;62.81;101983.16;5035545;28;45283;-57
2023/04/03 01:18:29;;;;;;;;;36.80;27.60;;;;;8.59;62.85;102011.13;5051418;28;45386;-56
2023/04/03 01:21:38;;;;;;;;;26.50;24.25;;;;;8.47;62.20;102002.31;5034858;28;45827;-55
2023/04/03 01:24:12;;;;;;;;;22.00;21.40;;;;;8.52;63.44;102009.06;4996952;28;45562;-57
2023/04/03 01:26:38;;;;;;;;;28.60;23.80;;;;;8.57;62.25;102007.69;5032011;28;45378;-55
2023/04/03 01:29:04;;;;;;;;;32.50;28.25;;;;;8.47;62.69;101989.50;5032792;28;45717;-55
2023/04/03 01:31:52;;;;;;;;;28.20;26.20;;;;;8.52;62.38;101999.97;5035262;28;46468;-53
2023/04/03 01:34:18;;;;;;;;;28.80;25.80;;;;;8.34;62.81;101995.47;5035303;28;45568;-57
2023/04/03 01:36:43;;;;;;;;;31.00;26.75;;;;;8.25;62.92;101967.22;5034020;28;45441;-57
2023/04/03 01:39:09;;;;;;;;;18.25;17.75;;;;;8.34;63.42;101978.19;5035566;28;45435;-53
2023/04/03 01:41:35;;;;;;;;;30.25;26.25;;;;;8.30;63.02;101974.94;5050382;28;45900;-56
2023/04/03 01:44:00;;;;;;;;;26.50;26.50;;;;;8.33;63.34;101979.22;5035211;28;45497;-55
2023/04/03 01:46:26;;;;;;;;;29.50;27.00;;;;;8.35;62.99;101983.50;5035338;28;45421;-56
2023/04/03 01:48:51;;;;;;;;;38.50;32.00;;;;;8.46;62.85;101987.78;5035713;28;45549;-56
2023/04/03 01:51:17;;;;;;;;;34.00;28.00;;;;;8.20;63.54;101946.84;5016559;28;45631;-57
2023/04/03 01:53:42;;;;;;;;;31.75;27.50;;;;;8.45;63.55;101993.44;5035073;28;45415;-56
2023/04/03 01:56:08;;;;;;;;;32.00;28.50;;;;;8.37;63.68;101991.50;5034230;28;45272;-56
2023/04/03 01:58:34;;;;;;;;;32.50;28.00;;;;;8.24;63.62;101976.47;5035515;28;45705;-54
2023/04/03 02:01:00;;;;;;;;;32.50;24.50;;;;;8.30;63.86;101991.34;4983392;28;48529;-56
2023/04/03 02:03:26;;;;;;;;;26.25;26.00;;;;;8.29;64.13;101986.91;5035123;28;45362;-54
2023/04/03 02:05:51;;;;;;;;;28.50;24.75;;;;;8.26;63.40;101989.94;5034837;28;45421;-56
2023/04/03 02:08:19;;;;;;;;;26.75;24.00;;;;;8.16;64.37;101987.34;5034560;28;46220;-55
2023/04/03 02:10:47;;;;;;;;;32.00;28.00;;;;;7.94;64.66;101956.84;5034425;28;46299;-55
2023/04/03 02:13:13;;;;;;;;;31.60;27.00;;;;;8.04;65.17;101985.94;5034367;28;45322;-56
2023/04/03 02:15:39;;;;;;;;;32.25;27.00;;;;;7.82;64.33;101961.78;5034539;28;45250;-57
2023/04/03 02:18:05;;;;;;;;;29.60;27.40;;;;;8.01;64.86;101987.16;5034929;28;45261;-56
2023/04/03 02:20:30;;;;;;;;;31.00;28.00;;;;;7.72;65.07;101967.34;5032603;28;46708;-53
2023/04/03 02:22:56;;;;;;;;;28.75;27.00;;;;;7.88;64.90;101993.06;5034527;28;45413;-55
2023/04/03 02:25:21;;;;;;;;;26.25;23.75;;;;;7.59;64.65;101945.09;5034405;28;45354;-55
2023/04/03 02:27:47;;;;;;;;;28.75;27.00;;;;;7.84;64.51;101997.13;5000155;28;45577;-56
2023/04/03 02:30:14;;;;;;;;;31.00;28.75;;;;;6.96;64.36;101854.25;5008642;28;46288;-55
2023/04/03 02:32:40;;;;;;;;;27.40;20.40;;;;;7.83;64.59;101996.28;5034228;28;45414;-55
2023/04/03 02:35:06;;;;;;;;;31.40;27.00;;;;;7.72;64.37;101991.97;5034311;28;45493;-53
2023/04/03 02:37:32;;;;;;;;;24.25;20.75;;;;;7.81;64.60;102001.06;5034624;28;45386;-56
2023/04/03 02:39:57;;;;;;;;;20.75;19.50;;;;;7.85;64.24;101993.41;5033635;28;45900;-55
2023/04/03 02:42:22;;;;;;;;;24.25;22.25;;;;;8.00;63.85;101999.06;5033876;28;45336;-55
2023/04/03 02:44:48;;;;;;;;;21.75;19.75;;;;;7.87;63.45;101961.28;5034234;28;45605;-53
2023/04/03 02:47:13;;;;;;;;;22.50;22.00;;;;;8.00;63.04;101979.94;5034457;28;45316;-55
2023/04/03 02:49:39;;;;;;;;;30.25;25.25;;;;;8.09;62.94;101997.25;4999040;28;46448;-53
2023/04/03 02:52:04;;;;;;;;;23.75;21.00;;;;;8.05;63.77;101996.72;5034411;28;45414;-52
2023/04/03 02:54:30;;;;;;;;;21.25;16.25;;;;;7.97;63.20;101996.69;5033558;28;45319;-52
2023/04/03 02:56:56;;;;;;;;;23.50;22.00;;;;;7.94;64.12;102002.47;5016356;28;45324;-52
2023/04/03 02:59:22;;;;;;;;;28.00;24.00;;;;;7.84;63.82;101975.25;5033779;28;45692;-51
2023/04/03 03:01:47;;;;;;;;;27.75;27.75;;;;;7.94;64.11;101994.25;5049170;28;45446;-53
2023/04/03 03:04:12;;;;;;;;;26.75;23.00;;;;;7.78;63.36;101954.91;5049794;28;45372;-53
2023/04/03 03:06:38;;;;;;;;;25.00;21.50;;;;;8.04;63.71;101988.66;5033609;28;45366;-53
2023/04/03 03:09:04;;;;;;;;;23.50;20.00;;;;;7.96;63.35;101967.63;5033860;28;45995;-55
2023/04/03 03:11:30;;;;;;;;;27.25;23.75;;;;;7.82;62.74;101958.16;5033225;28;45803;-54
2023/04/03 03:13:55;;;;;;;;;22.00;20.75;;;;;7.97;63.19;101980.28;5032569;28;45362;-54
2023/04/03 03:16:21;;;;;;;;;27.50;24.00;;;;;8.07;62.82;101989.19;5033901;28;45729;-52
2023/04/03 03:18:46;;;;;;;;;20.75;17.00;;;;;8.07;63.27;101982.88;5033168;28;45650;-53
2023/04/03 03:21:12;;;;;;;;;29.25;26.50;;;;;8.12;63.38;101983.25;5033303;28;45409;-55
2023/04/03 03:23:37;;;;;;;;;23.00;22.50;;;;;7.91;62.83;101949.00;5033413;28;45225;-55
2023/04/03 03:26:05;;;;;;;;;20.75;20.00;;;;;8.21;63.00;101995.94;5033818;28;45484;-55
2023/04/03 03:28:31;;;;;;;;;22.00;18.80;;;;;8.24;62.40;101986.53;5033272;28;46110;-54
2023/04/03 03:30:57;;;;;;;;;19.20;19.20;;;;;8.21;62.49;101981.41;5033269;28;45331;-53
2023/04/03 03:33:22;;;;;;;;;22.60;21.20;;;;;8.10;62.79;101977.94;5029444;28;45641;-54
2023/04/03 03:35:48;;;;;;;;;29.75;26.50;;;;;8.00;62.90;101989.00;5035404;28;45559;-54
2023/04/03 03:38:13;;;;;;;;;22.50;21.25;;;;;7.78;62.78;101967.72;5051970;28;46323;-54
2023/04/03 03:40:39;;;;;;;;;26.25;20.75;;;;;7.97;63.31;101991.22;5053184;28;45362;-52
2023/04/03 03:43:05;;;;;;;;;16.50;16.50;;;;;8.02;63.57;101983.38;5048994;28;45421;-52
2023/04/03 03:45:31;;;;;;;;;20.75;17.75;;;;;8.01;62.60;101978.94;5049802;28;45586;-55
2023/04/03 03:47:56;;;;;;;;;23.00;18.60;;;;;7.98;62.25;101980.13;5000666;28;48827;-53
2023/04/03 03:50:21;;;;;;;;;19.00;18.50;;;;;8.05;63.03;101982.19;5031831;28;45471;-53
2023/04/03 03:52:47;;;;;;;;;19.75;19.75;;;;;8.03;62.56;101984.22;5014806;28;45391;-55
2023/04/03 03:55:12;;;;;;;;;23.75;17.75;;;;;8.05;61.68;101984.94;5032510;28;45322;-54
2023/04/03 03:57:38;;;;;;;;;21.00;21.00;;;;;8.03;62.05;101986.97;5031713;28;46492;-57
2023/04/03 04:00:04;;;;;;;;;24.75;20.50;;;;;7.88;61.29;101960.25;5013601;28;45379;-55
2023/04/03 04:02:30;;;;;;;;;15.20;14.40;;;;;7.98;61.31;101987.47;5035457;28;45431;-54
2023/04/03 04:04:55;;;;;;;;;21.00;16.00;;;;;7.97;61.34;101977.53;5036014;28;45311;-53
2023/04/03 04:07:21;;;;;;;;;17.75;17.75;;;;;8.03;61.97;101993.28;5036259;28;45303;-54
2023/04/03 04:09:46;;;;;;;;;20.50;15.50;;;;;7.73;61.12;101946.34;5035860;28;45418;-55
2023/04/03 04:12:12;;;;;;;;;19.75;17.25;;;;;7.60;61.01;101952.25;5018246;28;45668;-55
2023/04/03 04:14:37;;;;;;;;;21.50;19.75;;;;;7.81;61.38;101981.06;5018486;28;45471;-54
2023/04/03 04:17:03;;;;;;;;;21.50;16.75;;;;;7.70;61.49;101944.78;5033971;28;48475;-53
2023/04/03 04:19:29;;;;;;;;;17.75;12.50;;;;;7.85;61.07;101983.28;5035887;28;45291;-53
2023/04/03 04:21:54;;;;;;;;;16.00;16.00;;;;;7.94;60.83;101972.38;5050866;28;45409;-51
2023/04/03 04:24:19;;;;;;;;;18.00;17.00;;;;;7.89;60.56;101964.69;5035628;28;45433;-54
2023/04/03 04:26:45;;;;;;;;;22.50;19.50;;;;;8.00;60.29;101974.47;5035215;28;45816;-53
2023/04/03 04:29:11;;;;;;;;;17.75;15.50;;;;;8.04;59.85;101973.13;5035331;28;45338;-54
2023/04/03 04:31:36;;;;;;;;;12.75;12.75;;;;;8.05;60.27;101976.72;5035598;28;45311;-51
2023/04/03 04:34:02;;;;;;;;;23.75;19.75;;;;;7.98;59.12;101980.13;5035768;28;45684;-55
2023/04/03 04:36:27;;;;;;;;;18.25;16.25;;;;;7.97;59.82;101975.69;5034861;28;45240;-53
2023/04/03 04:38:53;;;;;;;;;18.75;17.00;;;;;7.95;59.64;101982.34;5035402;28;45301;-53
2023/04/03 04:41:22;;;;;;;;;25.00;21.75;;;;;7.91;59.33;101978.19;5035151;28;45356;-55
2023/04/03 04:43:50;;;;;;;;;15.40;14.00;;;;;7.58;58.89;101937.91;5050767;28;45427;-53
2023/04/03 04:46:16;;;;;;;;;20.00;16.40;;;;;7.85;59.14;101979.72;5034596;28;46715;-56
2023/04/03 04:48:41;;;;;;;;;17.50;17.00;;;;;7.53;59.07;101948.47;5035348;28;45414;-56
2023/04/03 04:51:07;;;;;;;;;16.50;15.50;;;;;7.72;58.74;101978.28;5035016;28;45378;-56
2023/04/03 04:53:32;;;;;;;;;22.50;16.25;;;;;7.79;58.78;101977.63;5035204;28;45541;-52
2023/04/03 04:55:58;;;;;;;;;15.50;15.50;;;;;7.79;58.61;101969.44;4973428;28;1270506;-55
2023/04/03 04:58:24;;;;;;;;;18.50;16.25;;;;;7.82;58.01;101993.69;5017918;28;45296;-55
2023/04/03 05:00:49;;;;;;;;;13.00;12.25;;;;;7.66;56.93;101973.47;5017956;28;45728;-54
2023/04/03 05:03:15;;;;;;;;;18.75;17.75;;;;;7.71;57.69;101992.97;5035819;28;45416;-55
2023/04/03 05:05:40;;;;;;;;;19.50;18.00;;;;;7.38;57.68;101923.63;5035703;28;46330;-54
2023/04/03 05:08:08;;;;;;;;;16.00;15.50;;;;;7.77;57.60;102001.53;5017895;28;45417;-53
2023/04/03 05:10:33;;;;;;;;;20.40;19.00;;;;;7.56;57.56;101950.84;5035558;28;45439;-57
2023/04/03 05:12:59;;;;;;;;;20.50;19.00;;;;;7.04;57.47;101860.63;5035899;28;45454;-54
2023/04/03 05:15:24;;;;;;;;;19.00;17.50;;;;;7.72;56.81;101974.69;5000464;28;46419;-53
2023/04/03 05:17:50;;;;;;;;;21.00;16.75;;;;;7.66;56.72;101987.13;5001375;28;45554;-53
2023/04/03 05:20:16;;;;;;;;;21.00;17.20;;;;;7.66;56.83;101995.34;5035301;28;45563;-52
2023/04/03 05:22:42;;;;;;;;;21.00;19.50;;;;;7.69;56.96;101994.16;5017973;28;45451;-53
2023/04/03 05:25:07;;;;;;;;;17.25;16.00;;;;;7.78;56.97;101992.34;5035301;28;46060;-52
2023/04/03 05:27:33;;;;;;;;;21.00;16.50;;;;;7.64;56.55;101963.72;5034895;28;45383;-53
2023/04/03 05:29:59;;;;;;;;;18.00;16.00;;;;;7.90;55.88;101985.53;5017736;28;45843;-55
2023/04/03 05:32:27;;;;;;;;;22.80;20.20;;;;;7.67;56.48;101953.31;5035341;28;45480;-54
2023/04/03 05:34:52;;;;;;;;;24.80;17.80;;;;;7.92;55.93;101994.44;5035337;28;46669;-54
2023/04/03 05:37:18;;;;;;;;;21.25;16.50;;;;;7.69;55.09;101961.38;5035387;28;45465;-51
2023/04/03 05:39:44;;;;;;;;;18.25;17.25;;;;;7.72;55.35;101994.69;5017244;28;45426;-55
2023/04/03 05:42:11;;;;;;;;;17.75;17.75;;;;;7.78;55.62;101997.81;5035195;28;45393;-53
2023/04/03 05:44:36;;;;;;;;;28.20;19.00;;;;;7.86;55.90;101993.19;5017007;28;45855;-54
2023/04/03 05:47:02;;;;;;;;;21.75;18.75;;;;;7.81;55.08;102002.94;5035022;28;45490;-53
2023/04/03 05:49:27;;;;;;;;;20.25;19.00;;;;;7.73;54.86;102004.59;5035230;28;45565;-56
2023/04/03 05:51:53;;;;;;;;;21.00;16.25;;;;;7.62;55.06;101982.16;5033621;28;45407;-56
2023/04/03 05:54:26;;;;;;;;;21.75;19.00;;;;;7.66;55.56;102005.41;5050293;28;46799;-55
2023/04/03 05:56:52;;;;;;;;;19.60;16.60;;;;;7.15;55.18;101910.53;5033058;28;45484;-54
2023/04/03 05:59:18;;;;;;;;;23.75;21.50;;;;;7.78;55.08;102008.72;5035218;28;45282;-57
2023/04/03 06:01:43;;;;;;;;;22.40;17.60;;;;;7.44;54.53;101959.34;5034758;28;45841;-55
2023/04/03 06:04:09;;;;;;;;;20.25;16.50;;;;;7.73;54.21;102003.72;5034774;28;46486;-53
2023/04/03 06:06:48;;;;;;;;;22.25;19.75;;;;;7.58;55.09;101984.38;5034593;28;45330;-52
2023/04/03 06:09:15;;;;;;;;;25.60;20.40;;;;;7.80;54.88;102013.00;5016387;28;45442;-55
2023/04/03 06:11:41;;;;;;;;;21.00;19.60;;;;;7.75;54.66;102011.78;5035020;28;45394;-54
2023/04/03 06:14:07;;;;;;;;;23.60;21.00;;;;;7.62;54.37;102002.13;5000558;28;45593;-56
2023/04/03 06:16:33;;;;;;;;;19.20;17.20;;;;;7.43;54.75;101968.53;5033033;28;45290;-53
2023/04/03 06:18:59;;;;;;;;;21.50;20.25;;;;;7.36;54.47;101994.78;5016455;28;45414;-52
2023/04/03 06:21:25;;;;;;;;;21.00;19.50;;;;;7.40;55.17;102014.44;5034358;28;45413;-55
2023/04/03 06:23:51;;;;;;;;;19.00;19.00;;;;;7.53;55.03;102008.56;5033483;28;46474;-55
2023/04/03 06:26:16;;;;;;;;;16.60;14.60;;;;;7.58;55.08;102012.53;5034540;28;45331;-55
2023/04/03 06:28:42;;;;;;;;;20.25;17.25;;;;;7.63;54.59;102016.66;5034506;28;45344;-55
2023/04/03 06:31:08;;;;;;;;;23.50;20.50;;;;;7.64;54.70;102002.84;5034473;28;45416;-55
2023/04/03 06:33:34;;;;;;;;;25.40;20.40;;;;;7.54;54.38;102011.16;5034195;28;47788;-54
2023/04/03 06:35:59;;;;;;;;;23.75;18.25;;;;;7.50;54.65;102006.16;5016169;28;45442;-52
2023/04/03 06:38:25;;;;;;;;;24.50;20.50;;;;;7.48;54.45;102022.72;5016399;28;45395;-54
2023/04/03 06:40:51;;;;;;;;;22.25;19.50;;;;;7.53;54.57;102017.59;5015835;28;45480;-57
2023/04/03 06:43:17;;;;;;;;;20.00;18.20;;;;;7.50;54.88;102015.22;5034125;28;46957;-56
2023/04/03 06:45:42;;;;;;;;;23.75;19.50;;;;;7.54;54.98;102018.47;5016088;28;45371;-52
2023/04/03 06:48:08;;;;;;;;;21.75;16.75;;;;;7.60;55.22;102006.91;5034210;28;45400;-54
2023/04/03 06:50:34;;;;;;;;;21.80;20.40;;;;;7.45;54.25;101988.38;5016205;28;45450;-54
2023/04/03 06:53:00;;;;;;;;;26.00;24.50;;;;;7.70;54.21;102026.75;5033644;28;46116;-56
2023/04/03 06:55:26;;;;;;;;;21.00;19.40;;;;;7.79;54.50;102021.38;5033830;28;45426;-56
2023/04/03 06:57:52;;;;;;;;;23.50;21.00;;;;;7.52;54.45;101971.34;5016106;28;45347;-55
2023/04/03 07:00:18;;;;;;;;;24.75;23.50;;;;;7.83;54.75;102022.75;5034403;28;45198;-54
2023/04/03 07:02:43;;;;;;;;;19.40;16.20;;;;;7.84;53.76;102024.44;5033919;28;45674;-54
2023/04/03 07:05:09;;;;;;;;;23.00;21.50;;;;;7.76;53.88;102010.75;5033625;28;45431;-52
2023/04/03 07:07:35;;;;;;;;;19.75;19.00;;;;;7.89;54.10;102026.72;5016231;28;45378;-55
2023/04/03 07:10:00;;;;;;;;;21.75;21.00;;;;;7.83;53.42;102017.28;5016282;28;45473;-53
2023/04/03 07:12:26;;;;;;;;;22.00;18.50;;;;;7.79;54.16;102016.75;5015690;28;46863;-56
2023/04/03 07:14:51;;;;;;;;;15.00;15.00;;;;;7.81;54.00;102016.59;5015995;28;45422;-54
2023/04/03 07:17:17;;;;;;;;;22.50;20.25;;;;;7.85;54.62;102012.53;5033682;28;45419;-54
2023/04/03 07:19:42;;;;;;;;;21.25;21.25;;;;;8.00;54.28;102019.09;5016360;28;45575;-56
2023/04/03 07:22:08;;;;;;;;;20.00;19.75;;;;;8.07;53.87;102019.28;5033507;28;46175;-54
2023/04/03 07:24:33;;;;;;;;;18.75;17.00;;;;;8.14;54.26;102027.69;5033622;28;45290;-56
2023/04/03 07:26:59;;;;;;;;;21.50;20.00;;;;;8.04;53.79;102005.06;5033833;28;45375;-56
2023/04/03 07:29:24;;;;;;;;;20.75;18.50;;;;;8.13;53.52;102025.97;5033810;28;45358;-56
2023/04/03 07:31:50;;;;;;;;;16.75;16.00;;;;;8.21;53.83;102020.53;5033461;28;46161;-57
2023/04/03 07:34:15;;;;;;;;;23.00;20.00;;;;;8.24;53.51;102014.75;5033240;28;45332;-54
2023/04/03 07:36:41;;;;;;;;;17.75;17.75;;;;;8.23;53.98;102021.22;5033678;28;45625;-55
2023/04/03 07:39:07;;;;;;;;;21.50;20.25;;;;;8.26;53.74;102023.66;4986760;28;45311;-54
2023/04/03 07:41:33;;;;;;;;;28.00;20.20;;;;;8.26;53.14;102018.19;5014936;28;46535;-52
2023/04/03 07:43:59;;;;;;;;;20.00;15.75;;;;;8.21;53.11;102028.75;5033403;28;45843;-56
2023/04/03 07:46:24;;;;;;;;;19.75;16.00;;;;;8.23;53.24;102037.63;5033537;28;45771;-57
2023/04/03 07:48:49;;;;;;;;;22.00;15.50;;;;;8.12;53.68;102027.00;5033822;28;45343;-57
2023/04/03 07:51:16;;;;;;;;;24.75;22.00;;;;;8.09;53.09;102025.47;5033376;28;46518;-55
2023/04/03 07:53:41;;;;;;;;;17.20;16.40;;;;;8.06;53.92;102022.19;5033501;28;45423;-58
2023/04/03 07:56:07;;;;;;;;;16.75;15.75;;;;;8.19;53.88;102022.59;5032500;28;45491;-58
2023/04/03 07:58:33;;;;;;;;;15.80;15.60;;;;;8.29;54.11;102030.66;5012858;28;45604;-58
2023/04/03 08:01:00;;;;;;;;;18.75;16.00;;;;;8.25;53.08;102021.94;5024910;28;46020;-60
2023/04/03 08:03:25;;;;;;;;;26.60;19.20;;;;;8.33;53.16;102031.19;5011678;28;46171;-56
2023/04/03 08:05:51;;;;;;;;;17.25;17.25;;;;;8.35;53.82;102034.59;5032215;28;45309;-57
2023/04/03 08:08:18;;;;;;;;;17.00;13.00;;;;;8.46;53.23;102033.44;5031727;28;45362;-56
2023/04/03 08:10:48;;;;;;;;;18.40;16.00;;;;;8.52;53.40;102036.41;5028908;28;46093;-57
2023/04/03 08:13:13;;;;;;;;;16.40;16.40;;;;;8.60;52.28;102021.03;5028294;28;45424;-58
2023/04/03 08:15:39;;;;;;;;;12.25;12.25;;;;;8.72;53.15;102036.13;5024830;28;45932;-57
2023/04/03 08:18:04;;;;;;;;;15.50;15.50;;;;;8.82;52.64;102027.75;5020963;28;45399;-56
2023/04/03 08:20:30;;;;;;;;;13.50;13.50;;;;;8.86;52.06;102031.84;5010213;28;45480;-53
2023/04/03 08:22:56;;;;;;;;;17.20;13.00;;;;;8.98;52.52;102034.28;5029822;28;45395;-55
2023/04/03 08:25:21;;;;;;;;;15.50;12.50;;;;;8.97;51.81;102014.25;5030619;28;45622;-56
2023/04/03 08:27:47;;;;;;;;;19.50;14.00;;;;;8.98;50.68;102026.06;5028657;28;45774;-55
2023/04/03 08:30:13;;;;;;;;;13.75;11.25;;;;;8.91;50.85;102018.50;5032675;28;47392;-54
2023/04/03 08:32:38;;;;;;;;;8.60;8.00;;;;;9.03;50.45;102031.88;5030511;28;45549;-54
2023/04/03 08:35:04;;;;;;;;;8.00;8.00;;;;;9.16;49.91;102034.09;5013261;28;45683;-51
2023/04/03 08:37:30;;;;;;;;;8.60;8.00;;;;;8.79;49.46;101970.59;5045566;28;45885;-52
2023/04/03 08:39:56;;;;;;;;;8.50;7.75;;;;;9.09;49.52;102031.22;5015834;28;47270;-52
2023/04/03 08:42:36;;;;;;;;;7.00;7.00;;;;;8.94;48.48;102040.09;5015783;28;45789;-55
2023/04/03 08:45:10;;;;;;;;;7.80;7.80;;;;;8.82;49.23;102019.53;5001746;28;45731;-59
2023/04/03 08:47:43;;;;;;;;;8.40;8.40;;;;;8.86;49.36;102040.06;5009822;28;45540;-53
2023/04/03 08:50:23;;;;;;;;;11.40;10.00;;;;;8.85;49.22;102032.03;5015209;28;46359;-54
2023/04/03 08:52:50;;;;;;;;;7.40;7.00;;;;;8.84;49.03;102024.84;5014759;28;45881;-53
2023/04/03 08:55:31;;;;;;;;;9.60;8.20;;;;;8.94;49.78;102036.50;5015810;28;46723;-52
2023/04/03 08:58:09;;;;;;;;;13.00;11.80;;;;;9.08;48.76;102034.97;4976622;28;45649;-50
2023/04/03 09:00:58;;;;;;;;;11.20;11.20;;;;;9.18;48.81;102030.16;5049020;28;46137;-55
2023/04/03 09:03:24;;;;;;;;;11.60;9.00;;;;;9.09;49.71;102010.13;5044028;28;45368;-56
2023/04/03 09:05:57;;;;;;;;;11.25;11.25;;;;;9.34;48.90;102031.22;5032205;28;45394;-52
2023/04/03 09:08:35;;;;;;;;;10.80;10.40;;;;;9.38;47.90;102021.59;5014030;28;45547;-51
2023/04/03 09:11:24;;;;;;;;;11.80;10.80;;;;;9.35;48.67;102020.06;5015119;28;45480;-55
2023/04/03 09:13:59;;;;;;;;;11.00;7.60;;;;;9.40;48.35;102018.69;5015061;28;45404;-50
2023/04/03 09:16:27;;;;;;;;;9.00;7.40;;;;;9.38;48.35;102012.53;5032260;28;45900;-50
2023/04/03 09:19:02;;;;;;;;;8.80;7.80;;;;;9.43;47.67;102023.81;5022344;28;45465;-52
2023/04/03 09:21:35;;;;;;;;;7.20;7.20;;;;;9.31;49.05;102013.22;5033533;28;46423;-55
2023/04/03 09:24:00;;;;;;;;;7.20;7.20;;;;;9.39;48.12;102027.94;4999460;28;45503;-54
2023/04/03 09:26:30;;;;;;;;;10.00;7.75;;;;;9.65;49.05;102018.66;5033573;28;45531;-55
2023/04/03 09:28:58;;;;;;;;;6.40;6.00;;;;;9.78;48.31;102016.25;5015467;28;45342;-57
2023/04/03 09:31:26;;;;;;;;;8.00;7.40;;;;;9.94;47.81;102020.81;5011358;28;46936;-53
2023/04/03 09:34:24;;;;;;;;;9.60;8.20;;;;;9.95;47.01;101997.84;5053119;28;45490;-55
2023/04/03 09:36:51;;;;;;;;;8.20;8.20;;;;;10.07;47.18;102019.38;5021722;28;45469;-52
2023/04/03 09:39:27;;;;;;;;;7.00;7.00;;;;;9.93;46.99;102030.06;5033524;28;45462;-52
2023/04/03 09:41:56;;;;;;;;;6.60;5.20;;;;;9.81;46.98;102026.00;5014857;28;46801;-53
2023/04/03 09:44:24;;;;;;;;;8.20;7.20;;;;;9.82;48.11;102031.28;5031637;28;45508;-55
2023/04/03 09:46:49;;;;;;;;;6.80;6.40;;;;;9.75;48.79;102005.59;5030676;28;45727;-56
2023/04/03 09:49:15;;;;;;;;;8.00;8.00;;;;;9.67;47.75;101983.69;5038514;28;45766;-58
2023/04/03 09:51:41;;;;;;;;;8.75;7.00;;;;;9.87;48.33;102036.28;5031896;28;45698;-57
2023/04/03 09:54:30;;;;;;;;;6.50;6.50;;;;;9.89;48.01;102017.75;5016908;28;45943;-60
2023/04/03 09:56:55;;;;;;;;;7.20;5.60;;;;;10.03;47.24;102027.09;5031087;28;45705;-58
2023/04/03 09:59:21;;;;;;;;;7.00;7.00;;;;;9.99;46.46;102021.13;5015634;28;45535;-56
2023/04/03 10:02:03;;;;;;;;;9.25;7.00;;;;;9.86;46.46;102013.47;5010252;28;45918;-57
2023/04/03 10:04:40;;;;;;;;;8.20;6.60;;;;;10.01;47.01;102018.22;5030084;28;45495;-61
2023/04/03 10:07:26;;;;;;;;;8.80;7.00;;;;;9.93;46.46;102015.50;5018964;28;45504;-58
2023/04/03 10:10:01;;;;;;;;;4.80;4.00;;;;;10.01;47.13;102016.34;5032890;28;45521;-57
2023/04/03 10:12:26;;;;;;;;;6.40;6.40;;;;;10.12;47.35;101989.53;5032582;28;45880;-59
2023/04/03 10:15:00;;;;;;;;;10.25;7.75;;;;;10.30;47.45;101997.53;5014234;28;45574;-59
2023/04/03 10:17:49;;;;;;;;;8.20;7.60;;;;;10.26;45.86;102004.41;5050232;28;45456;-58
2023/04/03 10:20:21;;;;;;;;;10.00;10.00;;;;;10.17;47.05;102006.31;5035072;28;45459;-58
2023/04/03 10:23:09;;;;;;;;;7.80;6.80;;;;;10.09;46.48;101998.13;5052892;28;46334;-58
2023/04/03 10:25:42;;;;;;;;;7.80;6.20;;;;;10.12;45.61;102000.50;5036128;28;45367;-58
2023/04/03 10:29:00;;;;;;;;;8.00;6.80;;;;;10.08;45.26;101994.53;5043482;28;45476;-59
2023/04/03 10:31:44;;;;;;;;;9.00;7.60;;;;;10.09;46.58;101985.25;4962296;28;45742;-58
2023/04/03 10:34:21;;;;;;;;;9.00;9.00;;;;;10.20;45.01;101985.91;5024877;28;46301;-58
2023/04/03 10:37:09;;;;;;;;;6.40;5.20;;;;;10.22;46.41;101976.47;5032657;28;45305;-59
2023/04/03 10:39:44;;;;;;;;;10.20;9.00;;;;;10.35;45.50;101984.09;5032736;28;45456;-59
2023/04/03 10:42:22;;;;;;;;;8.20;8.20;;;;;10.36;44.87;101974.81;5067991;28;45485;-57
2023/04/03 10:45:08;;;;;;;;;7.20;6.20;;;;;10.37;44.74;101976.56;5037460;28;46461;-57
2023/04/03 10:47:44;;;;;;;;;7.60;7.60;;;;;10.25;44.57;101923.13;5030718;28;45784;-54
2023/04/03 10:50:35;;;;;;;;;7.00;6.80;;;;;10.62;44.23;101968.19;5048411;28;45720;-59
2023/04/03 10:53:28;;;;;;;;;9.00;7.60;;;;;10.77;44.04;101961.91;5021873;28;45556;-57
2023/04/03 10:56:11;;;;;;;;;9.40;9.40;;;;;10.81;43.11;101950.38;5032208;28;46230;-55
2023/04/03 10:59:12;;;;;;;;;8.20;8.20;;;;;10.89;43.85;101948.59;5017364;28;45382;-56
2023/04/03 11:01:38;;;;;;;;;3.60;3.60;;;;;10.86;42.76;101944.31;5027014;28;45485;-59
2023/04/03 11:04:05;;;;;;;;;7.00;7.00;;;;;10.97;43.50;101940.28;5011791;28;45324;-55
2023/04/03 11:07:01;;;;;;;;;7.60;7.00;;;;;11.05;43.43;101953.09;5068420;28;45315;-56
2023/04/03 11:09:28;;;;;;;;;8.00;8.00;;;;;11.06;42.38;101935.56;5052803;28;45342;-56
2023/04/03 11:12:06;;;;;;;;;6.60;6.60;;;;;11.15;42.08;101950.09;5031976;28;45494;-58
2023/04/03 11:14:36;;;;;;;;;5.00;5.00;;;;;11.09;40.79;101937.94;5013579;28;45613;-59
2023/04/03 11:17:16;;;;;;;;;21.20;16.80;;;;;11.24;41.53;101941.59;5016263;28;46187;-59
2023/04/03 11:19:41;;;;;;;;;5.00;5.00;;;;;10.98;41.05;101879.66;5032405;28;45434;-58
2023/04/03 11:22:19;;;;;;;;;5.00;5.00;;;;;11.24;41.42;101921.47;5033872;28;45342;-57
2023/04/03 11:24:50;;;;;;;;;6.60;6.60;;;;;11.27;41.12;101896.38;5032598;28;45433;-59